sensor_id;sensor_type;location;lat;lon;timestamp;P1;durP1;ratioP1;P2;durP2;ratioP2
48526;SDS011;34317;51.660;5.824;2023-05-07T00:00:03;8.55;;;5.32;;
48526;SDS011;34317;51.660;5.824;2023-05-07T00:02:36;5.93;;;5.25;;
48526;SDS011;34317;51.660;5.824;2023-05-07T00:05:05;7.20;;;5.55;;
48526;SDS011;34317;51.660;5.824;2023-05-07T00:07:33;6.63;;;5.18;;
48526;SDS011;34317;51.660;5.824;2023-05-07T00:10:00;6.85;;;5.50;;
48526;SDS011;34317;51.660;5.824;2023-05-07T00:12:27;7.88;;;5.70;;
48526;SDS011;34317;51.660;5.824;2023-05-07T00:15:06;8.13;;;5.53;;
48526;SDS011;34317;51.660;5.824;2023-05-07T00:17:35;6.78;;;5.40;;
48526;SDS011;34317;51.660;5.824;2023-05-07T00:20:03;9.23;;;6.28;;
48526;SDS011;34317;51.660;5.824;2023-05-07T00:22:31;8.35;;;5.90;;
48526;SDS011;34317;51.660;5.824;2023-05-07T00:24:59;11.93;;;6.05;;
48526;SDS011;34317;51.660;5.824;2023-05-07T00:27:26;9.00;;;5.78;;
48526;SDS011;34317;51.660;5.824;2023-05-07T00:29:54;9.48;;;5.57;;
48526;SDS011;34317;51.660;5.824;2023-05-07T00:32:21;6.93;;;5.85;;
48526;SDS011;34317;51.660;5.824;2023-05-07T00:34:48;7.50;;;5.32;;
48526;SDS011;34317;51.660;5.824;2023-05-07T00:37:17;8.35;;;5.80;;
48526;SDS011;34317;51.660;5.824;2023-05-07T00:39:44;9.15;;;6.90;;
48526;SDS011;34317;51.660;5.824;2023-05-07T00:42:11;11.15;;;6.63;;
48526;SDS011;34317;51.660;5.824;2023-05-07T00:44:38;9.77;;;5.80;;
48526;SDS011;34317;51.660;5.824;2023-05-07T00:47:06;8.18;;;6.53;;
48526;SDS011;34317;51.660;5.824;2023-05-07T00:49:43;7.82;;;6.07;;
48526;SDS011;34317;51.660;5.824;2023-05-07T00:52:13;8.35;;;5.93;;
48526;SDS011;34317;51.660;5.824;2023-05-07T00:54:42;9.82;;;6.95;;
48526;SDS011;34317;51.660;5.824;2023-05-07T00:57:09;8.98;;;7.00;;
48526;SDS011;34317;51.660;5.824;2023-05-07T00:59:40;9.80;;;7.55;;
48526;SDS011;34317;51.660;5.824;2023-05-07T01:02:08;10.02;;;7.90;;
48526;SDS011;34317;51.660;5.824;2023-05-07T01:04:35;9.05;;;7.53;;
48526;SDS011;34317;51.660;5.824;2023-05-07T01:07:03;11.18;;;7.78;;
48526;SDS011;34317;51.660;5.824;2023-05-07T01:09:32;11.60;;;8.85;;
48526;SDS011;34317;51.660;5.824;2023-05-07T01:12:02;13.70;;;8.82;;
48526;SDS011;34317;51.660;5.824;2023-05-07T01:14:30;12.65;;;8.60;;
48526;SDS011;34317;51.660;5.824;2023-05-07T01:16:57;14.40;;;8.95;;
48526;SDS011;34317;51.660;5.824;2023-05-07T01:19:26;12.75;;;8.45;;
48526;SDS011;34317;51.660;5.824;2023-05-07T01:21:54;12.88;;;8.32;;
48526;SDS011;34317;51.660;5.824;2023-05-07T01:24:28;11.95;;;8.95;;
48526;SDS011;34317;51.660;5.824;2023-05-07T01:26:56;11.98;;;9.15;;
48526;SDS011;34317;51.660;5.824;2023-05-07T01:29:23;12.73;;;10.15;;
48526;SDS011;34317;51.660;5.824;2023-05-07T01:31:51;15.98;;;11.13;;
48526;SDS011;34317;51.660;5.824;2023-05-07T01:34:19;15.00;;;10.60;;
48526;SDS011;34317;51.660;5.824;2023-05-07T01:36:48;14.60;;;10.00;;
48526;SDS011;34317;51.660;5.824;2023-05-07T01:39:16;12.02;;;9.18;;
48526;SDS011;34317;51.660;5.824;2023-05-07T01:41:43;14.13;;;9.90;;
48526;SDS011;34317;51.660;5.824;2023-05-07T01:44:12;12.70;;;9.52;;
48526;SDS011;34317;51.660;5.824;2023-05-07T01:46:40;11.15;;;8.90;;
48526;SDS011;34317;51.660;5.824;2023-05-07T01:49:07;14.82;;;9.25;;
48526;SDS011;34317;51.660;5.824;2023-05-07T01:51:35;11.13;;;9.27;;
48526;SDS011;34317;51.660;5.824;2023-05-07T01:54:02;11.82;;;9.55;;
48526;SDS011;34317;51.660;5.824;2023-05-07T01:56:30;12.63;;;9.57;;
48526;SDS011;34317;51.660;5.824;2023-05-07T01:58:58;12.43;;;9.60;;
48526;SDS011;34317;51.660;5.824;2023-05-07T02:01:25;15.75;;;9.82;;
48526;SDS011;34317;51.660;5.824;2023-05-07T02:03:53;15.15;;;9.77;;
48526;SDS011;34317;51.660;5.824;2023-05-07T02:06:24;13.30;;;8.98;;
48526;SDS011;34317;51.660;5.824;2023-05-07T02:08:56;13.07;;;10.15;;
48526;SDS011;34317;51.660;5.824;2023-05-07T02:11:23;11.70;;;9.88;;
48526;SDS011;34317;51.660;5.824;2023-05-07T02:13:51;14.40;;;11.05;;
48526;SDS011;34317;51.660;5.824;2023-05-07T02:16:19;16.52;;;10.88;;
48526;SDS011;34317;51.660;5.824;2023-05-07T02:18:48;12.02;;;10.43;;
48526;SDS011;34317;51.660;5.824;2023-05-07T02:21:15;16.33;;;10.07;;
48526;SDS011;34317;51.660;5.824;2023-05-07T02:23:42;14.77;;;11.50;;
48526;SDS011;34317;51.660;5.824;2023-05-07T02:26:10;13.13;;;11.50;;
48526;SDS011;34317;51.660;5.824;2023-05-07T02:28:37;15.90;;;11.63;;
48526;SDS011;34317;51.660;5.824;2023-05-07T02:31:05;16.50;;;11.25;;
48526;SDS011;34317;51.660;5.824;2023-05-07T02:33:33;19.08;;;12.05;;
48526;SDS011;34317;51.660;5.824;2023-05-07T02:36:07;22.20;;;13.13;;
48526;SDS011;34317;51.660;5.824;2023-05-07T02:38:40;16.10;;;11.75;;
48526;SDS011;34317;51.660;5.824;2023-05-07T02:41:07;14.77;;;11.57;;
48526;SDS011;34317;51.660;5.824;2023-05-07T02:43:35;16.35;;;12.20;;
48526;SDS011;34317;51.660;5.824;2023-05-07T02:48:36;17.40;;;12.98;;
48526;SDS011;34317;51.660;5.824;2023-05-07T02:51:04;17.73;;;14.07;;
48526;SDS011;34317;51.660;5.824;2023-05-07T02:53:34;15.55;;;12.55;;
48526;SDS011;34317;51.660;5.824;2023-05-07T02:56:02;20.90;;;13.68;;
48526;SDS011;34317;51.660;5.824;2023-05-07T02:58:29;18.35;;;12.90;;
48526;SDS011;34317;51.660;5.824;2023-05-07T03:00:58;19.42;;;13.55;;
48526;SDS011;34317;51.660;5.824;2023-05-07T03:03:33;17.92;;;13.15;;
48526;SDS011;34317;51.660;5.824;2023-05-07T03:06:01;18.25;;;13.50;;
48526;SDS011;34317;51.660;5.824;2023-05-07T03:08:28;19.75;;;13.13;;
48526;SDS011;34317;51.660;5.824;2023-05-07T03:10:56;16.60;;;13.35;;
48526;SDS011;34317;51.660;5.824;2023-05-07T03:13:23;16.13;;;13.20;;
48526;SDS011;34317;51.660;5.824;2023-05-07T03:15:52;17.08;;;13.70;;
48526;SDS011;34317;51.660;5.824;2023-05-07T03:18:19;17.48;;;14.23;;
48526;SDS011;34317;51.660;5.824;2023-05-07T03:20:47;19.52;;;15.32;;
48526;SDS011;34317;51.660;5.824;2023-05-07T03:23:17;21.05;;;14.82;;
48526;SDS011;34317;51.660;5.824;2023-05-07T03:25:44;19.65;;;15.02;;
48526;SDS011;34317;51.660;5.824;2023-05-07T03:28:12;19.00;;;14.68;;
48526;SDS011;34317;51.660;5.824;2023-05-07T03:30:45;19.13;;;15.48;;
48526;SDS011;34317;51.660;5.824;2023-05-07T03:33:12;18.00;;;14.60;;
48526;SDS011;34317;51.660;5.824;2023-05-07T03:35:40;18.58;;;15.02;;
48526;SDS011;34317;51.660;5.824;2023-05-07T03:38:07;22.83;;;14.38;;
48526;SDS011;34317;51.660;5.824;2023-05-07T03:40:36;18.77;;;15.50;;
48526;SDS011;34317;51.660;5.824;2023-05-07T03:43:04;19.45;;;14.75;;
48526;SDS011;34317;51.660;5.824;2023-05-07T03:45:34;19.05;;;15.73;;
48526;SDS011;34317;51.660;5.824;2023-05-07T03:48:24;18.02;;;15.10;;
48526;SDS011;34317;51.660;5.824;2023-05-07T03:50:54;19.13;;;15.77;;
48526;SDS011;34317;51.660;5.824;2023-05-07T03:53:24;19.83;;;16.25;;
48526;SDS011;34317;51.660;5.824;2023-05-07T03:55:51;21.27;;;16.42;;
48526;SDS011;34317;51.660;5.824;2023-05-07T03:58:20;22.45;;;16.58;;
48526;SDS011;34317;51.660;5.824;2023-05-07T04:00:47;19.30;;;16.30;;
48526;SDS011;34317;51.660;5.824;2023-05-07T04:03:27;20.75;;;16.65;;
48526;SDS011;34317;51.660;5.824;2023-05-07T04:05:57;19.77;;;16.88;;
48526;SDS011;34317;51.660;5.824;2023-05-07T04:08:25;22.63;;;17.50;;
48526;SDS011;34317;51.660;5.824;2023-05-07T04:10:54;23.30;;;18.15;;
48526;SDS011;34317;51.660;5.824;2023-05-07T04:13:23;23.08;;;17.20;;
48526;SDS011;34317;51.660;5.824;2023-05-07T04:15:52;23.20;;;17.02;;
48526;SDS011;34317;51.660;5.824;2023-05-07T04:18:20;19.60;;;16.00;;
48526;SDS011;34317;51.660;5.824;2023-05-07T04:20:49;22.45;;;17.88;;
48526;SDS011;34317;51.660;5.824;2023-05-07T04:23:16;22.33;;;17.30;;
48526;SDS011;34317;51.660;5.824;2023-05-07T04:25:43;21.95;;;17.67;;
48526;SDS011;34317;51.660;5.824;2023-05-07T04:28:22;21.75;;;17.00;;
48526;SDS011;34317;51.660;5.824;2023-05-07T04:30:50;22.48;;;17.45;;
48526;SDS011;34317;51.660;5.824;2023-05-07T04:33:19;21.20;;;17.27;;
48526;SDS011;34317;51.660;5.824;2023-05-07T04:35:48;20.85;;;17.85;;
48526;SDS011;34317;51.660;5.824;2023-05-07T04:38:16;22.70;;;17.70;;
48526;SDS011;34317;51.660;5.824;2023-05-07T04:40:44;23.75;;;18.02;;
48526;SDS011;34317;51.660;5.824;2023-05-07T04:43:15;25.73;;;17.50;;
48526;SDS011;34317;51.660;5.824;2023-05-07T04:45:49;22.20;;;17.85;;
48526;SDS011;34317;51.660;5.824;2023-05-07T04:48:18;22.95;;;17.98;;
48526;SDS011;34317;51.660;5.824;2023-05-07T04:50:49;22.75;;;18.20;;
48526;SDS011;34317;51.660;5.824;2023-05-07T04:53:18;24.85;;;18.27;;
48526;SDS011;34317;51.660;5.824;2023-05-07T04:55:46;22.98;;;18.50;;
48526;SDS011;34317;51.660;5.824;2023-05-07T04:58:14;23.17;;;18.20;;
48526;SDS011;34317;51.660;5.824;2023-05-07T05:00:44;23.42;;;18.45;;
48526;SDS011;34317;51.660;5.824;2023-05-07T05:03:12;23.33;;;17.70;;
48526;SDS011;34317;51.660;5.824;2023-05-07T05:05:39;23.38;;;18.60;;
48526;SDS011;34317;51.660;5.824;2023-05-07T05:08:07;22.48;;;18.17;;
48526;SDS011;34317;51.660;5.824;2023-05-07T05:10:37;23.35;;;18.33;;
48526;SDS011;34317;51.660;5.824;2023-05-07T05:13:05;24.13;;;18.50;;
48526;SDS011;34317;51.660;5.824;2023-05-07T05:15:33;23.75;;;18.70;;
48526;SDS011;34317;51.660;5.824;2023-05-07T05:18:01;24.50;;;18.92;;
48526;SDS011;34317;51.660;5.824;2023-05-07T05:20:29;23.23;;;19.52;;
48526;SDS011;34317;51.660;5.824;2023-05-07T05:22:57;23.25;;;18.45;;
48526;SDS011;34317;51.660;5.824;2023-05-07T05:25:24;27.48;;;20.08;;
48526;SDS011;34317;51.660;5.824;2023-05-07T05:27:51;23.92;;;18.35;;
48526;SDS011;34317;51.660;5.824;2023-05-07T05:30:19;23.25;;;19.92;;
48526;SDS011;34317;51.660;5.824;2023-05-07T05:32:48;24.75;;;18.40;;
48526;SDS011;34317;51.660;5.824;2023-05-07T05:35:15;26.67;;;19.67;;
48526;SDS011;34317;51.660;5.824;2023-05-07T05:37:43;24.83;;;19.23;;
48526;SDS011;34317;51.660;5.824;2023-05-07T05:40:11;24.77;;;19.30;;
48526;SDS011;34317;51.660;5.824;2023-05-07T05:42:39;23.13;;;18.55;;
48526;SDS011;34317;51.660;5.824;2023-05-07T05:45:07;23.25;;;19.15;;
48526;SDS011;34317;51.660;5.824;2023-05-07T05:47:35;25.73;;;18.33;;
48526;SDS011;34317;51.660;5.824;2023-05-07T05:50:04;24.02;;;19.52;;
48526;SDS011;34317;51.660;5.824;2023-05-07T05:52:33;24.88;;;18.85;;
48526;SDS011;34317;51.660;5.824;2023-05-07T05:55:01;24.92;;;18.73;;
48526;SDS011;34317;51.660;5.824;2023-05-07T05:57:28;23.58;;;18.40;;
48526;SDS011;34317;51.660;5.824;2023-05-07T05:59:56;23.17;;;19.08;;
48526;SDS011;34317;51.660;5.824;2023-05-07T06:02:24;23.92;;;18.17;;
48526;SDS011;34317;51.660;5.824;2023-05-07T06:04:52;23.60;;;19.08;;
48526;SDS011;34317;51.660;5.824;2023-05-07T06:07:22;25.10;;;19.30;;
48526;SDS011;34317;51.660;5.824;2023-05-07T06:09:50;20.92;;;18.35;;
48526;SDS011;34317;51.660;5.824;2023-05-07T06:12:17;27.77;;;19.70;;
48526;SDS011;34317;51.660;5.824;2023-05-07T06:14:46;22.98;;;19.40;;
48526;SDS011;34317;51.660;5.824;2023-05-07T06:17:15;22.13;;;18.10;;
48526;SDS011;34317;51.660;5.824;2023-05-07T06:19:46;24.33;;;19.13;;
48526;SDS011;34317;51.660;5.824;2023-05-07T06:22:15;22.92;;;19.02;;
48526;SDS011;34317;51.660;5.824;2023-05-07T06:24:43;25.98;;;19.38;;
48526;SDS011;34317;51.660;5.824;2023-05-07T06:27:10;22.75;;;18.23;;
48526;SDS011;34317;51.660;5.824;2023-05-07T06:29:37;26.52;;;19.25;;
48526;SDS011;34317;51.660;5.824;2023-05-07T06:32:12;23.75;;;18.85;;
48526;SDS011;34317;51.660;5.824;2023-05-07T06:34:42;23.02;;;18.83;;
48526;SDS011;34317;51.660;5.824;2023-05-07T06:37:10;21.95;;;17.48;;
48526;SDS011;34317;51.660;5.824;2023-05-07T06:39:52;22.88;;;18.52;;
48526;SDS011;34317;51.660;5.824;2023-05-07T06:42:19;22.92;;;18.08;;
48526;SDS011;34317;51.660;5.824;2023-05-07T06:44:48;21.38;;;17.83;;
48526;SDS011;34317;51.660;5.824;2023-05-07T06:47:17;21.73;;;17.38;;
48526;SDS011;34317;51.660;5.824;2023-05-07T06:49:49;21.52;;;17.48;;
48526;SDS011;34317;51.660;5.824;2023-05-07T06:52:18;21.95;;;17.23;;
48526;SDS011;34317;51.660;5.824;2023-05-07T06:54:48;21.00;;;16.95;;
48526;SDS011;34317;51.660;5.824;2023-05-07T06:57:17;23.35;;;17.65;;
48526;SDS011;34317;51.660;5.824;2023-05-07T06:59:45;20.83;;;16.50;;
48526;SDS011;34317;51.660;5.824;2023-05-07T07:02:12;19.95;;;16.40;;
48526;SDS011;34317;51.660;5.824;2023-05-07T07:04:40;21.42;;;14.98;;
48526;SDS011;34317;51.660;5.824;2023-05-07T07:07:10;21.15;;;16.13;;
48526;SDS011;34317;51.660;5.824;2023-05-07T07:09:39;21.13;;;16.77;;
48526;SDS011;34317;51.660;5.824;2023-05-07T07:12:08;21.80;;;16.30;;
48526;SDS011;34317;51.660;5.824;2023-05-07T07:14:38;18.48;;;15.80;;
48526;SDS011;34317;51.660;5.824;2023-05-07T07:17:05;19.02;;;15.82;;
48526;SDS011;34317;51.660;5.824;2023-05-07T07:19:33;20.38;;;16.30;;
48526;SDS011;34317;51.660;5.824;2023-05-07T07:22:02;22.38;;;16.52;;
48526;SDS011;34317;51.660;5.824;2023-05-07T07:24:30;18.92;;;15.20;;
48526;SDS011;34317;51.660;5.824;2023-05-07T07:27:00;19.60;;;15.38;;
48526;SDS011;34317;51.660;5.824;2023-05-07T07:29:28;19.30;;;15.50;;
48526;SDS011;34317;51.660;5.824;2023-05-07T07:31:56;21.67;;;15.55;;
48526;SDS011;34317;51.660;5.824;2023-05-07T07:34:23;18.92;;;15.20;;
48526;SDS011;34317;51.660;5.824;2023-05-07T07:36:50;19.88;;;15.23;;
48526;SDS011;34317;51.660;5.824;2023-05-07T07:39:19;18.75;;;15.35;;
48526;SDS011;34317;51.660;5.824;2023-05-07T07:41:49;19.02;;;15.32;;
48526;SDS011;34317;51.660;5.824;2023-05-07T07:44:18;17.23;;;14.48;;
48526;SDS011;34317;51.660;5.824;2023-05-07T07:46:50;18.65;;;14.10;;
48526;SDS011;34317;51.660;5.824;2023-05-07T07:49:19;16.58;;;13.85;;
48526;SDS011;34317;51.660;5.824;2023-05-07T07:51:47;17.83;;;13.85;;
48526;SDS011;34317;51.660;5.824;2023-05-07T07:54:15;17.17;;;13.10;;
48526;SDS011;34317;51.660;5.824;2023-05-07T07:56:43;18.15;;;14.00;;
48526;SDS011;34317;51.660;5.824;2023-05-07T07:59:12;17.00;;;14.13;;
48526;SDS011;34317;51.660;5.824;2023-05-07T08:01:44;16.88;;;13.27;;
48526;SDS011;34317;51.660;5.824;2023-05-07T08:04:12;18.08;;;13.82;;
48526;SDS011;34317;51.660;5.824;2023-05-07T08:06:41;18.17;;;13.35;;
48526;SDS011;34317;51.660;5.824;2023-05-07T08:09:09;16.48;;;11.63;;
48526;SDS011;34317;51.660;5.824;2023-05-07T08:11:39;16.30;;;12.32;;
48526;SDS011;34317;51.660;5.824;2023-05-07T08:14:06;15.32;;;13.40;;
48526;SDS011;34317;51.660;5.824;2023-05-07T08:16:34;15.40;;;12.70;;
48526;SDS011;34317;51.660;5.824;2023-05-07T08:19:01;16.95;;;12.93;;
48526;SDS011;34317;51.660;5.824;2023-05-07T08:21:29;14.73;;;11.98;;
48526;SDS011;34317;51.660;5.824;2023-05-07T08:24:00;16.38;;;12.23;;
48526;SDS011;34317;51.660;5.824;2023-05-07T08:26:28;16.15;;;12.93;;
48526;SDS011;34317;51.660;5.824;2023-05-07T08:28:56;16.17;;;11.63;;
48526;SDS011;34317;51.660;5.824;2023-05-07T08:31:24;14.35;;;11.77;;
48526;SDS011;34317;51.660;5.824;2023-05-07T08:33:51;14.38;;;12.05;;
48526;SDS011;34317;51.660;5.824;2023-05-07T08:36:20;14.63;;;12.65;;
48526;SDS011;34317;51.660;5.824;2023-05-07T08:38:47;15.73;;;12.18;;
48526;SDS011;34317;51.660;5.824;2023-05-07T08:41:15;15.20;;;11.82;;
48526;SDS011;34317;51.660;5.824;2023-05-07T08:43:47;16.33;;;11.98;;
48526;SDS011;34317;51.660;5.824;2023-05-07T08:46:20;15.73;;;13.02;;
48526;SDS011;34317;51.660;5.824;2023-05-07T08:48:52;14.80;;;11.95;;
48526;SDS011;34317;51.660;5.824;2023-05-07T08:51:20;14.57;;;12.05;;
48526;SDS011;34317;51.660;5.824;2023-05-07T08:53:49;16.02;;;11.27;;
48526;SDS011;34317;51.660;5.824;2023-05-07T08:56:23;16.77;;;11.35;;
48526;SDS011;34317;51.660;5.824;2023-05-07T08:58:52;13.27;;;11.65;;
48526;SDS011;34317;51.660;5.824;2023-05-07T09:01:24;13.45;;;11.52;;
48526;SDS011;34317;51.660;5.824;2023-05-07T09:03:54;13.40;;;11.32;;
48526;SDS011;34317;51.660;5.824;2023-05-07T09:06:22;12.63;;;11.20;;
48526;SDS011;34317;51.660;5.824;2023-05-07T09:08:50;13.55;;;9.40;;
48526;SDS011;34317;51.660;5.824;2023-05-07T09:11:23;13.30;;;9.20;;
48526;SDS011;34317;51.660;5.824;2023-05-07T09:13:56;12.07;;;9.57;;
48526;SDS011;34317;51.660;5.824;2023-05-07T09:16:27;11.43;;;9.07;;
48526;SDS011;34317;51.660;5.824;2023-05-07T09:18:59;11.98;;;8.73;;
48526;SDS011;34317;51.660;5.824;2023-05-07T09:21:27;13.48;;;9.30;;
48526;SDS011;34317;51.660;5.824;2023-05-07T09:23:57;11.80;;;9.07;;
48526;SDS011;34317;51.660;5.824;2023-05-07T09:26:35;12.10;;;8.25;;
48526;SDS011;34317;51.660;5.824;2023-05-07T09:29:11;9.75;;;8.20;;
48526;SDS011;34317;51.660;5.824;2023-05-07T09:31:39;12.10;;;9.07;;
48526;SDS011;34317;51.660;5.824;2023-05-07T09:34:09;13.13;;;9.50;;
48526;SDS011;34317;51.660;5.824;2023-05-07T09:36:39;12.15;;;8.65;;
48526;SDS011;34317;51.660;5.824;2023-05-07T09:39:07;10.25;;;7.40;;
48526;SDS011;34317;51.660;5.824;2023-05-07T09:41:42;10.70;;;8.07;;
48526;SDS011;34317;51.660;5.824;2023-05-07T09:44:16;9.98;;;7.43;;
48526;SDS011;34317;51.660;5.824;2023-05-07T09:46:50;9.65;;;7.80;;
48526;SDS011;34317;51.660;5.824;2023-05-07T09:49:29;11.57;;;8.00;;
48526;SDS011;34317;51.660;5.824;2023-05-07T09:52:03;10.77;;;8.00;;
48526;SDS011;34317;51.660;5.824;2023-05-07T09:54:41;11.93;;;8.50;;
48526;SDS011;34317;51.660;5.824;2023-05-07T09:57:10;10.07;;;8.13;;
48526;SDS011;34317;51.660;5.824;2023-05-07T09:59:42;8.50;;;7.22;;
48526;SDS011;34317;51.660;5.824;2023-05-07T10:02:13;9.77;;;7.57;;
48526;SDS011;34317;51.660;5.824;2023-05-07T10:04:48;10.18;;;7.50;;
48526;SDS011;34317;51.660;5.824;2023-05-07T10:07:18;10.57;;;7.53;;
48526;SDS011;34317;51.660;5.824;2023-05-07T10:09:46;9.57;;;7.40;;
48526;SDS011;34317;51.660;5.824;2023-05-07T10:12:24;10.75;;;8.55;;
48526;SDS011;34317;51.660;5.824;2023-05-07T10:14:51;11.13;;;8.52;;
48526;SDS011;34317;51.660;5.824;2023-05-07T10:17:20;10.95;;;8.68;;
48526;SDS011;34317;51.660;5.824;2023-05-07T10:19:48;8.82;;;7.30;;
48526;SDS011;34317;51.660;5.824;2023-05-07T10:22:17;16.00;;;7.75;;
48526;SDS011;34317;51.660;5.824;2023-05-07T10:24:47;11.60;;;7.80;;
48526;SDS011;34317;51.660;5.824;2023-05-07T10:27:19;10.75;;;7.93;;
48526;SDS011;34317;51.660;5.824;2023-05-07T10:29:55;10.52;;;7.63;;
48526;SDS011;34317;51.660;5.824;2023-05-07T10:35:29;10.15;;;7.75;;
48526;SDS011;34317;51.660;5.824;2023-05-07T10:38:02;11.52;;;8.38;;
48526;SDS011;34317;51.660;5.824;2023-05-07T10:40:32;10.88;;;7.40;;
48526;SDS011;34317;51.660;5.824;2023-05-07T10:43:02;9.60;;;7.47;;
48526;SDS011;34317;51.660;5.824;2023-05-07T10:45:41;11.48;;;7.68;;
48526;SDS011;34317;51.660;5.824;2023-05-07T10:50:50;9.05;;;6.97;;
48526;SDS011;34317;51.660;5.824;2023-05-07T10:56:42;10.30;;;7.60;;
48526;SDS011;34317;51.660;5.824;2023-05-07T11:02:04;9.38;;;7.22;;
48526;SDS011;34317;51.660;5.824;2023-05-07T11:04:40;8.60;;;7.35;;
48526;SDS011;34317;51.660;5.824;2023-05-07T11:07:24;8.75;;;6.63;;
48526;SDS011;34317;51.660;5.824;2023-05-07T11:09:57;10.48;;;6.53;;
48526;SDS011;34317;51.660;5.824;2023-05-07T11:15:15;8.73;;;6.97;;
48526;SDS011;34317;51.660;5.824;2023-05-07T11:18:00;9.00;;;7.20;;
48526;SDS011;34317;51.660;5.824;2023-05-07T11:26:15;13.23;;;7.00;;
48526;SDS011;34317;51.660;5.824;2023-05-07T11:28:44;9.45;;;6.53;;
48526;SDS011;34317;51.660;5.824;2023-05-07T11:31:11;7.85;;;5.97;;
48526;SDS011;34317;51.660;5.824;2023-05-07T11:33:40;7.18;;;5.00;;
48526;SDS011;34317;51.660;5.824;2023-05-07T11:36:13;7.40;;;4.75;;
48526;SDS011;34317;51.660;5.824;2023-05-07T11:38:45;8.50;;;5.50;;
48526;SDS011;34317;51.660;5.824;2023-05-07T11:41:13;8.20;;;5.13;;
48526;SDS011;34317;51.660;5.824;2023-05-07T11:43:53;8.00;;;5.55;;
48526;SDS011;34317;51.660;5.824;2023-05-07T11:46:23;7.65;;;5.60;;
48526;SDS011;34317;51.660;5.824;2023-05-07T11:48:50;8.50;;;5.28;;
48526;SDS011;34317;51.660;5.824;2023-05-07T11:51:21;8.48;;;5.32;;
48526;SDS011;34317;51.660;5.824;2023-05-07T11:53:50;7.55;;;5.82;;
48526;SDS011;34317;51.660;5.824;2023-05-07T11:56:18;8.13;;;5.25;;
48526;SDS011;34317;51.660;5.824;2023-05-07T11:58:46;7.25;;;5.53;;
48526;SDS011;34317;51.660;5.824;2023-05-07T12:01:14;7.75;;;5.28;;
48526;SDS011;34317;51.660;5.824;2023-05-07T12:03:43;6.95;;;4.30;;
48526;SDS011;34317;51.660;5.824;2023-05-07T12:06:14;8.70;;;5.15;;
48526;SDS011;34317;51.660;5.824;2023-05-07T12:08:42;7.32;;;5.25;;
48526;SDS011;34317;51.660;5.824;2023-05-07T12:11:21;8.25;;;4.88;;
48526;SDS011;34317;51.660;5.824;2023-05-07T12:13:50;7.28;;;4.78;;
48526;SDS011;34317;51.660;5.824;2023-05-07T12:16:17;7.25;;;5.05;;
48526;SDS011;34317;51.660;5.824;2023-05-07T12:18:46;7.82;;;4.70;;
48526;SDS011;34317;51.660;5.824;2023-05-07T12:21:13;7.20;;;4.82;;
48526;SDS011;34317;51.660;5.824;2023-05-07T12:23:40;5.95;;;4.40;;
48526;SDS011;34317;51.660;5.824;2023-05-07T12:26:08;6.22;;;4.47;;
48526;SDS011;34317;51.660;5.824;2023-05-07T12:28:38;7.05;;;4.78;;
48526;SDS011;34317;51.660;5.824;2023-05-07T12:31:06;5.55;;;4.43;;
48526;SDS011;34317;51.660;5.824;2023-05-07T12:33:34;6.43;;;4.40;;
48526;SDS011;34317;51.660;5.824;2023-05-07T12:36:03;9.45;;;4.50;;
48526;SDS011;34317;51.660;5.824;2023-05-07T12:38:39;6.88;;;4.65;;
48526;SDS011;34317;51.660;5.824;2023-05-07T12:41:08;6.00;;;4.57;;
48526;SDS011;34317;51.660;5.824;2023-05-07T12:43:37;5.20;;;4.32;;
48526;SDS011;34317;51.660;5.824;2023-05-07T12:46:05;6.43;;;4.30;;
48526;SDS011;34317;51.660;5.824;2023-05-07T12:48:35;6.57;;;4.30;;
48526;SDS011;34317;51.660;5.824;2023-05-07T12:51:05;6.03;;;4.25;;
48526;SDS011;34317;51.660;5.824;2023-05-07T12:53:34;7.05;;;4.60;;
48526;SDS011;34317;51.660;5.824;2023-05-07T12:56:07;5.70;;;4.35;;
48526;SDS011;34317;51.660;5.824;2023-05-07T12:58:35;6.15;;;4.22;;
48526;SDS011;34317;51.660;5.824;2023-05-07T13:01:06;6.72;;;4.15;;
48526;SDS011;34317;51.660;5.824;2023-05-07T13:03:35;6.07;;;4.07;;
48526;SDS011;34317;51.660;5.824;2023-05-07T13:06:07;5.55;;;4.65;;
48526;SDS011;34317;51.660;5.824;2023-05-07T13:08:37;5.63;;;4.50;;
48526;SDS011;34317;51.660;5.824;2023-05-07T13:11:15;8.82;;;4.47;;
48526;SDS011;34317;51.660;5.824;2023-05-07T13:13:42;7.65;;;4.55;;
48526;SDS011;34317;51.660;5.824;2023-05-07T13:16:10;6.18;;;4.45;;
48526;SDS011;34317;51.660;5.824;2023-05-07T13:18:39;7.30;;;4.53;;
48526;SDS011;34317;51.660;5.824;2023-05-07T13:21:07;7.60;;;4.60;;
48526;SDS011;34317;51.660;5.824;2023-05-07T13:23:34;8.02;;;4.90;;
48526;SDS011;34317;51.660;5.824;2023-05-07T13:26:01;6.38;;;4.35;;
48526;SDS011;34317;51.660;5.824;2023-05-07T13:28:40;6.68;;;4.28;;
48526;SDS011;34317;51.660;5.824;2023-05-07T13:31:08;6.82;;;4.13;;
48526;SDS011;34317;51.660;5.824;2023-05-07T13:33:36;9.20;;;4.60;;
48526;SDS011;34317;51.660;5.824;2023-05-07T13:36:03;6.10;;;4.65;;
48526;SDS011;34317;51.660;5.824;2023-05-07T13:38:32;7.05;;;4.70;;
48526;SDS011;34317;51.660;5.824;2023-05-07T13:40:59;6.22;;;4.43;;
48526;SDS011;34317;51.660;5.824;2023-05-07T13:43:26;9.45;;;4.43;;
48526;SDS011;34317;51.660;5.824;2023-05-07T13:45:53;6.63;;;4.20;;
48526;SDS011;34317;51.660;5.824;2023-05-07T13:48:21;4.85;;;4.10;;
48526;SDS011;34317;51.660;5.824;2023-05-07T13:50:48;9.88;;;4.47;;
48526;SDS011;34317;51.660;5.824;2023-05-07T13:53:15;6.68;;;4.75;;
48526;SDS011;34317;51.660;5.824;2023-05-07T13:55:45;4.22;;;2.67;;
48526;SDS011;34317;51.660;5.824;2023-05-07T13:58:13;2.72;;;1.50;;
48526;SDS011;34317;51.660;5.824;2023-05-07T14:00:40;4.07;;;1.40;;
48526;SDS011;34317;51.660;5.824;2023-05-07T14:03:07;2.90;;;1.55;;
48526;SDS011;34317;51.660;5.824;2023-05-07T14:05:34;2.70;;;1.30;;
48526;SDS011;34317;51.660;5.824;2023-05-07T14:08:02;2.97;;;1.40;;
48526;SDS011;34317;51.660;5.824;2023-05-07T14:10:31;2.58;;;1.30;;
48526;SDS011;34317;51.660;5.824;2023-05-07T14:13:01;3.03;;;1.20;;
48526;SDS011;34317;51.660;5.824;2023-05-07T14:15:28;2.33;;;1.30;;
48526;SDS011;34317;51.660;5.824;2023-05-07T14:17:55;4.70;;;1.40;;
48526;SDS011;34317;51.660;5.824;2023-05-07T14:20:24;2.85;;;1.30;;
48526;SDS011;34317;51.660;5.824;2023-05-07T14:22:52;4.20;;;1.20;;
48526;SDS011;34317;51.660;5.824;2023-05-07T14:25:19;2.17;;;1.27;;
48526;SDS011;34317;51.660;5.824;2023-05-07T14:27:50;4.18;;;1.50;;
48526;SDS011;34317;51.660;5.824;2023-05-07T14:30:17;5.80;;;1.70;;
48526;SDS011;34317;51.660;5.824;2023-05-07T14:32:44;5.57;;;1.60;;
48526;SDS011;34317;51.660;5.824;2023-05-07T14:35:11;5.47;;;1.83;;
48526;SDS011;34317;51.660;5.824;2023-05-07T14:37:39;2.97;;;1.58;;
48526;SDS011;34317;51.660;5.824;2023-05-07T14:40:07;4.45;;;1.58;;
48526;SDS011;34317;51.660;5.824;2023-05-07T14:42:34;2.55;;;1.60;;
48526;SDS011;34317;51.660;5.824;2023-05-07T14:45:02;3.72;;;1.90;;
48526;SDS011;34317;51.660;5.824;2023-05-07T14:47:29;7.30;;;1.75;;
48526;SDS011;34317;51.660;5.824;2023-05-07T14:49:56;3.45;;;1.70;;
48526;SDS011;34317;51.660;5.824;2023-05-07T14:52:24;2.85;;;1.45;;
48526;SDS011;34317;51.660;5.824;2023-05-07T14:54:51;3.30;;;1.80;;
48526;SDS011;34317;51.660;5.824;2023-05-07T14:57:18;3.22;;;1.90;;
48526;SDS011;34317;51.660;5.824;2023-05-07T14:59:46;6.55;;;1.83;;
48526;SDS011;34317;51.660;5.824;2023-05-07T15:02:13;3.50;;;1.65;;
48526;SDS011;34317;51.660;5.824;2023-05-07T15:04:42;3.90;;;1.40;;
48526;SDS011;34317;51.660;5.824;2023-05-07T15:07:13;4.47;;;1.73;;